Latest Weather Observations for Halls Creek

IDD60801

Issued at 10:35 pm CST Monday 20 October 2014 (issued every 30 minutes, with the page automatically refreshed every 10 minutes)

About weather observations | Map of weather stations | Latest weather observations for NT | Other Formats
Station Details ID: 002012 Name: HALLS CREEK AIRPORT Lat: -18.23 Lon: 127.66 Height: 422.0 m
Data from the previous 72 hours. | See also: Recent months at Halls Creek
Date/Time
CST
Temp
°C
App
Temp
°C
Dew
Point
Rel
Hum
%
Delta-T
°C
Wind Press
QNH
hPa
Press
MSL
hPa
Rain
since 9 am
mm
Dir
 
Spd
km/h
Gust
km/h
Spd
kts
Gust
kts
20/10:30pm 28.9 28.4 7.7 26 11.7 ESE 0 2 0 1 1015.2 1012.0 0.0
20/10:00pm 30.8 29.3 4.8 19 13.8 NE 2 4 1 2 1015.2 - 0.0
20/09:30pm 30.9 29.0 4.7 19 13.9 N 4 6 2 3 1015.1 - 0.0
20/09:00pm 31.6 29.5 3.7 17 14.6 NNE 4 6 2 3 1014.6 - 0.0
20/08:30pm 31.5 29.5 4.2 18 14.4 N 4 4 2 2 1014.3 - 0.0
20/08:00pm 32.7 30.8 5.0 17 14.9 ENE 4 7 2 4 1014.0 - 0.0
20/07:30pm 33.3 31.2 3.9 15 15.6 E 4 6 2 3 1013.6 1010.4 0.0
20/07:00pm 34.4 31.6 2.3 13 16.7 E 6 13 3 7 1013.2 - 0.0
20/06:30pm 35.4 32.5 1.2 11 17.6 E 6 11 3 6 1012.9 - 0.0
20/06:00pm 36.2 32.5 -0.1 10 18.4 ESE 9 17 5 9 1012.4 - 0.0
20/05:30pm 36.6 33.4 1.0 10 18.4 E 7 17 4 9 1012.2 - 0.0
20/05:00pm 37.1 34.0 0.1 10 18.9 ENE 6 15 3 8 1012.1 - 0.0
20/04:30pm 37.5 34.7 -0.1 9 19.2 NE 4 15 2 8 1012.1 1009.0 0.0
20/04:00pm 37.7 33.7 -2.5 8 19.8 SE 9 17 5 9 1012.3 - 0.0
20/03:30pm 37.9 34.5 -1.9 8 19.8 SE 6 15 3 8 1012.6 - 0.0
20/03:00pm 37.7 33.7 -2.0 8 19.7 E 9 19 5 10 1012.9 - 0.0
20/02:30pm 37.7 34.5 0.9 10 19.1 E 7 17 4 9 1013.2 - 0.0
20/02:00pm 37.7 33.9 -1.0 8 19.5 SSE 9 24 5 13 1013.6 - 0.0
20/01:30pm 37.7 33.8 1.3 10 19.0 E 11 24 6 13 1014.2 1011.1 0.0
20/01:00pm 36.1 33.0 1.3 11 18.0 NNW 7 24 4 13 1014.9 - 0.0
20/12:30pm 36.6 33.2 1.7 11 18.2 NE 9 19 5 10 1015.5 - 0.0
20/12:00pm 35.4 31.5 1.1 11 17.6 N 11 22 6 12 1015.9 - 0.0
20/11:30am 35.5 32.1 1.8 12 17.5 N 9 26 5 14 1016.1 - 0.0
20/11:00am 34.9 32.4 3.5 14 16.7 ENE 6 17 3 9 1016.5 - 0.0
20/10:30am 34.1 31.5 4.2 15 16.0 NE 7 15 4 8 1016.9 1013.8 0.0
20/10:00am 33.3 30.7 4.2 16 15.5 NNE 7 15 4 8 1016.9 - 0.0
20/09:30am 32.2 29.7 3.9 16 14.9 WNW 6 11 3 6 1016.9 - 0.0
20/09:00am 30.7 28.0 2.8 17 14.3 NW 6 11 3 6 1017.0 - 0.0
20/08:30am 28.1 25.8 2.7 19 12.8 NNW 4 7 2 4 1016.8 - 0.0
20/08:00am 25.3 22.9 1.9 21 11.4 NNE 4 7 2 4 1016.7 - 0.0
20/07:30am 23.2 21.1 3.7 28 9.7 N 4 7 2 4 1016.2 1013.1 0.0
20/07:00am 21.5 19.5 2.2 28 9.2 SE 2 6 1 3 1015.7 - 0.0
20/06:30am 23.0 20.1 1.6 24 10.2 NNW 6 9 3 5 1015.4 - 0.0
20/06:00am 23.6 21.2 2.1 24 10.4 NNW 4 7 2 4 1015.1 - 0.0
20/05:30am 23.2 21.4 3.7 28 9.7 SSW 2 6 1 3 1014.8 - 0.0
20/05:00am 24.3 21.8 1.7 22 10.9 WSW 4 6 2 3 1014.4 - 0.0
20/04:30am 24.5 21.6 1.4 22 11.1 W 6 7 3 4 1014.2 1011.1 0.0
20/04:00am 25.8 23.4 2.3 21 11.6 W 4 7 2 4 1014.1 - 0.0
20/03:30am 24.3 21.3 0.6 21 11.2 WSW 6 9 3 5 1014.0 - 0.0
20/03:00am 24.3 22.5 3.4 25 10.4 ESE 2 6 1 3 1013.8 - 0.0
20/02:30am 24.2 21.8 1.9 23 10.8 ESE 4 7 2 4 1013.9 - 0.0
20/02:00am 25.4 23.4 2.5 22 11.3 ENE 2 4 1 2 1014.1 - 0.0
20/01:30am 24.6 22.8 3.7 25 10.5 E 2 4 1 2 1014.4 1011.3 0.0
20/01:00am 24.6 22.1 1.6 22 11.1 ESE 4 6 2 3 1014.6 - 0.0
20/12:30am 25.6 23.3 0.7 19 11.9 W 2 9 1 5 1014.6 - 0.0
20/12:00am 27.3 24.7 1.0 18 12.8 NNE 4 4 2 2 1014.7 - 0.0
 
Date/Time
CST
Temp
°C
App
Temp
°C
Dew
Point
Rel
Hum
%
Delta-T
°C
Wind Press
QNH
hPa
Press
MSL
hPa
Rain
since 9 am
mm
Dir
 
Spd
km/h
Gust
km/h
Spd
kts
Gust
kts
19/11:30pm 26.2 24.3 3.0 22 11.6 NE 2 2 1 1 1014.9 - 0.0
19/11:00pm 26.5 24.9 4.3 24 11.4 ENE 2 4 1 2 1015.1 - 0.0
19/10:30pm 27.4 25.8 4.7 23 11.8 NE 2 2 1 1 1015.1 1011.9 0.0
19/10:00pm 28.3 26.7 4.5 22 12.4 N 2 4 1 2 1014.7 - 0.0
19/09:30pm 28.6 26.7 3.1 19 13.0 ENE 2 4 1 2 1014.5 - 0.0
19/09:00pm 30.4 28.2 1.0 15 14.6 NNW 2 4 1 2 1014.3 - 0.0
19/08:30pm 31.5 28.8 0.0 13 15.5 N 4 6 2 3 1014.1 - 0.0
19/08:00pm 31.0 29.0 -0.4 13 15.3 CALM 0 4 0 2 1013.8 - 0.0
19/07:30pm 32.8 30.0 -0.5 12 16.4 NNE 4 6 2 3 1013.3 1010.1 0.0
19/07:00pm 34.0 31.5 -1.3 10 17.3 NE 2 4 1 2 1013.0 - 0.0
19/06:30pm 35.4 31.7 -4.2 8 18.7 NE 6 15 3 8 1012.7 - 0.0
19/06:00pm 36.0 32.3 -5.0 7 19.2 NNE 6 11 3 6 1012.3 - 0.0
19/05:30pm 36.3 32.5 -5.2 7 19.4 NNE 6 11 3 6 1012.1 - 0.0
19/05:00pm 37.3 33.5 -5.1 6 20.0 NNE 6 15 3 8 1012.1 - 0.0
19/04:30pm 36.8 32.8 -7.1 6 20.0 NE 6 15 3 8 1012.1 1009.0 0.0
19/04:00pm 37.4 33.4 -8.1 5 20.5 ESE 6 19 3 10 1012.1 - 0.0
19/03:30pm 36.8 32.0 -10.3 4 20.4 NNW 9 24 5 13 1012.3 - 0.0
19/03:00pm 36.7 32.5 -7.6 5 20.0 N 7 15 4 8 1012.9 - 0.0
19/02:30pm 37.2 33.1 -6.2 6 20.1 E 7 19 4 10 1013.2 - 0.0
19/02:00pm 36.4 32.2 -7.5 6 19.8 NE 7 19 4 10 1013.6 - 0.0
19/01:30pm 35.8 31.6 -8.0 6 19.5 N 7 22 4 12 1014.0 1010.9 0.0
19/01:00pm 35.9 31.4 -6.8 6 19.4 NE 9 24 5 13 1014.4 - 0.0
19/12:30pm 35.7 30.9 -5.7 7 19.1 ENE 11 24 6 13 1015.1 - 0.0
19/12:00pm 34.9 29.3 -6.2 7 18.7 E 15 32 8 17 1015.5 - 0.0
19/11:30am 34.7 28.8 -5.7 7 18.5 NE 17 39 9 21 1015.9 - 0.0
19/11:00am 34.4 28.4 -6.2 7 18.4 ENE 17 33 9 18 1016.3 - 0.0
19/10:30am 33.6 27.6 -6.7 7 18.0 ENE 17 33 9 18 1016.4 1013.3 0.0
19/10:00am 32.7 27.5 -6.3 8 17.4 NE 13 30 7 16 1016.6 - 0.0
19/09:30am 31.3 26.9 -5.7 9 16.5 NE 9 28 5 15 1016.7 - 0.0
19/09:00am 28.9 25.7 -3.4 12 14.7 ENE 4 9 2 5 1016.6 - 0.0
19/08:30am 26.6 24.0 -1.9 15 13.1 ENE 2 4 1 2 1016.6 - 0.0
19/08:00am 24.7 22.0 -2.6 16 12.2 NE 2 4 1 2 1016.2 - 0.0
19/07:30am 23.2 20.6 -1.8 19 11.2 E 2 4 1 2 1015.9 1012.7 0.0
19/07:00am 20.9 18.1 -3.2 19 10.3 ESE 2 4 1 2 1015.6 - 0.0
19/06:30am 20.3 17.5 -3.7 19 10.1 E 2 4 1 2 1015.4 - 0.0
19/06:00am 21.2 18.0 -3.4 19 10.5 NE 4 6 2 3 1015.1 - 0.0
19/05:30am 21.3 17.5 -9.7 11 11.7 NNW 4 6 2 3 1014.8 - 0.0
19/05:00am 20.8 17.5 -4.3 18 10.5 N 4 4 2 2 1014.5 - 0.0
19/04:30am 19.9 16.2 -8.4 14 10.8 NNW 4 6 2 3 1014.4 1011.3 0.0
19/04:00am 20.3 16.8 -6.1 16 10.6 E 4 7 2 4 1014.2 - 0.0
19/03:30am 18.4 14.7 -8.0 16 10.0 NNE 4 7 2 4 1014.2 - 0.0
19/03:00am 19.7 15.7 -7.2 15 10.5 E 6 11 3 6 1014.3 - 0.0
19/02:30am 20.6 18.1 -3.9 19 10.3 CALM 0 2 0 1 1014.2 - 0.0
19/02:00am 21.9 19.2 -6.0 15 11.4 CALM 0 2 0 1 1014.4 - 0.0
19/01:30am 22.6 19.5 -6.2 14 11.8 NNW 2 2 1 1 1014.6 1011.5 0.0
19/01:00am 23.9 20.7 -6.9 12 12.6 SW 2 2 1 1 1014.8 - 0.0
19/12:30am 24.0 20.7 -7.8 11 12.8 SW 2 4 1 2 1014.9 - 0.0
19/12:00am 23.7 20.9 -6.9 12 12.5 CALM 0 2 0 1 1015.2 - 0.0
 
Date/Time
CST
Temp
°C
App
Temp
°C
Dew
Point
Rel
Hum
%
Delta-T
°C
Wind Press
QNH
hPa
Press
MSL
hPa
Rain
since 9 am
mm
Dir
 
Spd
km/h
Gust
km/h
Spd
kts
Gust
kts
18/11:30pm 23.7 20.6 -5.8 13 12.3 SE 2 7 1 4 1015.3 - 0.0
18/11:00pm 25.2 22.0 -7.5 11 13.4 E 2 4 1 2 1015.3 - 0.0
18/10:30pm 25.9 22.6 -8.3 10 13.9 N 2 4 1 2 1015.2 1012.0 0.0
18/10:00pm 26.2 23.2 -5.5 12 13.6 NNE 2 4 1 2 1015.1 - 0.0
18/09:30pm 27.5 23.9 -7.2 10 14.6 NNE 4 4 2 2 1014.8 - 0.0
18/09:00pm 27.7 23.3 -12.3 6 15.4 N 6 7 3 4 1014.6 - 0.0
18/08:30pm 27.3 24.1 -3.8 13 13.9 S 4 6 2 3 1014.3 - 0.0
18/08:00pm 28.8 26.2 -5.2 10 15.0 CALM 0 2 0 1 1014.1 - 0.0
18/07:30pm 29.7 26.9 -3.0 12 15.1 ENE 2 4 1 2 1013.8 1010.6 0.0
18/07:00pm 31.2 28.4 -3.1 10 16.0 E 2 4 1 2 1013.6 - 0.0
18/06:30pm 33.0 29.6 -5.6 8 17.5 ESE 4 6 2 3 1013.2 - 0.0
18/06:00pm 34.3 29.7 -17.7 3 19.6 SE 6 17 3 9 1012.9 - 0.0
18/05:30pm 35.0 30.1 -20.8 2 20.2 SE 7 17 4 9 1012.7 - 0.0
18/05:00pm 35.2 30.3 -20.4 2 20.3 ESE 7 20 4 11 1012.4 - 0.0
18/04:30pm 35.5 30.4 -25.3 1 20.7 E 7 15 4 8 1012.7 1009.5 0.0
18/04:00pm 36.1 31.0 -26.8 1 21.1 ESE 7 20 4 11 1012.9 - 0.0
18/03:30pm 36.3 30.6 -21.7 2 21.0 SE 11 22 6 12 1013.1 - 0.0
18/03:00pm 35.3 29.6 -21.4 2 20.4 SE 11 24 6 13 1013.4 - 0.0
18/02:30pm 34.9 29.9 -22.0 2 20.2 NNE 7 15 4 8 1013.7 - 0.0
18/02:00pm 35.6 30.6 -22.0 2 20.6 NE 7 22 4 12 1014.2 - 0.0
18/01:30pm 34.1 28.7 -23.4 2 19.8 ENE 9 26 5 14 1014.6 1011.5 0.0
18/01:00pm 34.5 29.6 -19.2 2 19.8 ENE 7 24 4 13 1015.3 - 0.0
18/12:30pm 33.5 27.8 -20.5 2 19.3 NE 11 24 6 13 1016.0 - 0.0
18/12:00pm 33.4 27.8 -18.3 3 19.1 NE 11 26 6 14 1016.5 - 0.0
18/11:30am 32.6 26.9 -20.8 2 18.8 ENE 11 22 6 12 1016.9 - 0.0
18/11:00am 32.2 25.7 -23.3 2 18.7 ENE 15 32 8 17 1017.4 - 0.0
18/10:30am 31.4 24.5 -24.3 2 18.3 ENE 17 32 9 17 1017.7 1014.5 0.0
18/10:00am 30.9 24.0 -21.8 2 17.9 ENE 17 32 9 17 1017.9 - 0.0
18/09:30am 30.4 25.8 -13.5 5 17.0 ENE 7 20 4 11 1017.8 - 0.0
18/09:00am 27.6 22.6 -12.9 6 15.4 ENE 9 20 5 11 1017.8 - 0.0
18/08:30am 25.1 21.5 -7.9 10 13.4 E 4 7 2 4 1017.6 - 0.0
18/08:00am 22.7 18.5 -9.7 10 12.4 ESE 6 7 3 4 1017.2 - 0.0
18/07:30am 21.3 17.6 -8.4 13 11.5 E 4 6 2 3 1016.9 1013.8 0.0
18/07:00am 18.9 15.9 -5.2 19 9.7 E 2 4 1 2 1016.5 - 0.0
18/06:30am 18.9 15.3 -7.3 16 10.1 E 4 7 2 4 1016.1 - 0.0
18/06:00am 18.6 15.0 -7.5 16 10.0 NNE 4 6 2 3 1015.9 - 0.0
18/05:30am 18.2 14.5 -8.1 16 9.9 NNE 4 6 2 3 1015.7 - 0.0
18/05:00am 19.4 16.0 -4.9 19 9.9 ENE 4 6 2 3 1015.5 - 0.0
18/04:30am 20.8 16.5 -11.5 10 11.7 E 6 7 3 4 1015.3 1012.1 0.0
18/04:00am 20.5 16.7 -9.7 12 11.3 ESE 4 6 2 3 1015.3 - 0.0
18/03:30am 19.8 16.4 -4.9 18 10.1 ESE 4 4 2 2 1015.3 - 0.0
18/03:00am 20.0 17.1 -3.9 19 10.0 ESE 2 4 1 2 1015.4 - 0.0
18/02:30am 20.6 17.5 -5.9 16 10.7 ESE 2 4 1 2 1015.5 - 0.0
18/02:00am 21.1 18.4 -6.1 15 11.0 CALM 0 0 0 0 1015.6 - 0.0
18/01:30am 21.4 18.3 -6.4 15 11.2 N 2 4 1 2 1015.9 1012.7 0.0
18/01:00am 22.2 19.0 -6.9 13 11.7 E 2 2 1 1 1016.1 - 0.0
18/12:30am 22.8 19.7 -6.2 14 11.9 E 2 4 1 2 1016.2 - 0.0

Other Formats:

Comma delimited format used in spreadsheet applications
http://www.bom.gov.au/fwo/IDD60801/IDD60801.94212.axf

JavaScript Object Notation format (JSON) in row-major order
http://www.bom.gov.au/fwo/IDD60801/IDD60801.94212.json